• Join FlightAware (Why Join?)
  • Login
  • US Flag 
08:53PM EDT


 

Airport Tracker/Info


-or-


 

Live Flight TrackerFlight Track Log ✈ GJS6221 ✈ 10-Aug-2013 ✈ CYUL - KLGA

Flight Track Log - Related Links

Times and Time Zones

All times are in EDT time to prevent confusion due to time zone crossing. See the GJS6221 flight status page for this flight to view local times or setup timezone preferences in your user account.

Time Position Orientation Groundspeed Altitude Reporting Facility
EDT Latitude Longitude Course Direction KTS MPH feet Rate Location/Type
07:14AM 45.4453 -73.7564 189° South 462 532 1,600  Level Boston Center
07:15AM 45.3989 -73.8056 217° Southwest 312 359 4,200 2,640 Climbing Boston Center
07:16AM 45.3339 -73.8483 205° Southwest 291 335 7,000 3,120 Climbing Boston Center
07:17AM 45.2500 -73.8667 189° South 280 322 10,300 2,520 Climbing Montreal Center
07:18AM 45.1667 -73.9000 196° South 310 357 12,000 2,100 Climbing Montreal Center
07:19AM 44.8313 -74.1069 189° South  Level FlightAware Approximate
07:19AM 45.0833 -73.9500 203° Southwest 340 391 14,500  Level Montreal Center
07:20AM 44.9833 -74.0000 199° South 350 403 16,700 2,040 Climbing Montreal Center
07:21AM 44.9000 -74.0500 203° Southwest 350 403 18,600 1,860 Climbing Montreal Center
07:22AM 44.8139 -74.0992 202° Southwest 363 418 20,600 1,740 Climbing Boston Center
07:23AM 44.7114 -74.1431 197° South 377 434 22,200 1,740 Climbing Boston Center
07:24AM 44.5969 -74.1192 172° South 394 453 24,100 1,620 Climbing Boston Center
07:25AM 44.4847 -74.1017 174° South 405 466 25,600 1,320 Climbing Boston Center
07:26AM 44.3808 -74.0869 174° South 413 475 26,800 1,080 Climbing Boston Center
07:27AM 44.2622 -74.0692 174° South 424 488 27,800 1,020 Climbing Boston Center
07:28AM 44.1272 -74.0453 173° South 433 498 28,900 960 Climbing Boston Center
07:29AM 44.0169 -74.0278 173° South 446 513 30,000 480 Climbing Boston Center
07:30AM 43.8672 -73.9981 172° South 446 513 30,000  Level Boston Center
07:31AM 43.7447 -73.9775 173° South 446 513 30,000  Level Boston Center
07:32AM 43.5950 -73.9567 174° South 452 520 30,000  Level Boston Center
07:33AM 43.4681 -73.9333 172° South 457 526 30,000 -240 Level Boston Center
07:34AM 43.3414 -73.9075 172° South 465 535 29,600 -720 Descending Boston Center
07:35AM 43.2122 -73.8872 173° South 465 535 28,600 -1,140 Descending Boston Center
07:36AM 43.0897 -73.8672 173° South 460 529 27,400 -1,200 Descending Boston Center
07:37AM 42.9567 -73.8444 173° South 449 517 26,200 -1,200 Descending Boston Center
07:38AM 42.8381 -73.8219 172° South 437 503 25,000 -1,200 Descending Boston Center
07:39AM 42.7217 -73.8022 173° South 431 496 23,800 -1,260 Descending Boston Center
07:40AM 42.6050 -73.7800 172° South 431 496 22,600 -1,200 Descending Boston Center
07:41AM 42.4969 -73.7578 171° South 417 480 21,500 -1,140 Descending Boston Center
07:42AM 42.3950 -73.7361 171° South 411 473 20,200 -1,260 Descending Boston Center
07:43AM 42.2639 -73.7222 176° South 406 467 18,800 -1,140 Descending Boston Center
07:44AM 42.1472 -73.7308 183° South 398 458 18,000 -420 Descending Boston Center
07:45AM 42.0511 -73.7403 184° South 398 458 18,000  Level Boston Center
07:46AM 41.9342 -73.7517 184° South 386 444 18,000 -60 Level Boston Center
07:47AM 41.8383 -73.7608 184° South 386 444 17,900 -1,200 Descending Boston Center
07:48AM 41.7236 -73.7697 183° South 378 435 15,700 -2,160 Descending Boston Center
07:50AM 41.5833 -73.7833 184° South 374 430 13,100 -2,160 Descending New York TRACON
07:51AM 41.4833 -73.7833 180° South 349 402 10,900 -1,740 Descending New York TRACON
07:52AM 41.4000 -73.8000 189° South 294 338 9,700 -900 Descending New York TRACON
07:53AM 41.3333 -73.7833 169° South 289 333 9,100 -540 Descending New York TRACON
07:54AM 41.2500 -73.7167 149° Southeast 309 356 8,700 -960 Descending New York TRACON
07:55AM 41.1833 -73.6500 143° Southeast 306 352 7,200 -1,200 Descending New York TRACON
07:57AM 41.0280 -73.6457 210° Southwest  Level FlightAware Approximate
07:58AM 40.9667 -73.6167 210° Southwest 274 315 4,100  Level New York TRACON
07:59AM 40.8833 -73.6500 197° South 268 308 4,100  Level New York TRACON
08:01AM 40.7856 -73.8551 180° South  Level Estimated
08:08AM 40.7667 -73.8667 180° South  Level FlightAware Approximate
08:09AM 40.7772 -73.8726 180° South  Level Estimated
08:10AM 40.7772 -73.8726 180° South  Level Estimated
08:11AM 40.7772 -73.8726 180° South  Level Estimated
08:12AM 40.7772 -73.8726 180° South  Level Estimated